Latest Coastal Weather Observations for Truscott

IDD60701

Issued at 11:25 am CST Wednesday 23 July 2014 (issued every 10 minutes, with the page automatically refreshed every 10 minutes)

About coastal observations | Map of coastal stations | Coastal observations for NT | Marine services | Other Formats
Station Details ID: 001020 Name: TRUSCOTT Lat: -14.09 Lon: 126.39 Height: 51.0 m
Data from the previous 72 hours. | See also: Recent months at Truscott
Date/Time
CST
Temp

°C
Wind Pressure Rain
since 9am
mm
Weather Cloud Vis
km
Sea
Height
m
Swell
Dir
 
Speed
knots
Gust
knots
hPa Trend Height
m
Period
s
Dir
23/11:00am 27.3 W 2 6 1015.2 - 0.0 - - 10 - - - -
23/10:30am 25.8 S 3 6 1015.2 - 0.0 - - 10 - - - -
23/10:00am 24.5 SSW 4 5 1015.7 - 0.0 - - 10 - - - -
23/09:30am 23.3 SSW 5 7 1015.6 - 0.0 - - 10 - - - -
23/09:00am 21.5 SSW 4 6 1015.2 - 0.0 - - 10 - - - -
23/08:30am 20.3 SW 5 7 1014.9 - 0.0 - - 10 - - - -
23/08:00am 19.5 SSW 6 7 1014.7 - 0.0 - - 10 - - - -
23/07:30am 19.0 SSW 5 7 1014.2 - 0.0 - - 10 - - - -
23/07:00am 19.1 SSW 5 7 1014.4 - 0.0 - - 10 - - - -
23/06:30am 19.2 SSW 7 9 1014.2 - 0.0 - - 10 - - - -
23/06:00am 18.9 SSW 5 7 1014.1 - 0.0 - - 10 - - - -
23/05:30am 18.8 SW 5 7 1014.1 - 0.0 - - 10 - - - -
23/05:00am 18.9 SW 6 7 1014.0 - 0.0 - - 10 - - - -
23/04:30am 19.2 SW 6 7 1013.6 - 0.0 - - 10 - - - -
23/04:00am 19.4 SSW 4 6 1014.1 - 0.0 - - 10 - - - -
23/03:30am 19.6 SSW 5 6 1014.1 - 0.0 - - 10 - - - -
23/03:00am 19.4 SSW 3 4 1014.1 - 0.0 - - 10 - - - -
23/02:30am 19.0 SSW 2 4 1014.2 - 0.0 - - 10 - - - -
23/02:00am 19.5 SSW 4 5 1014.5 - 0.0 - - 10 - - - -
23/01:30am 18.6 E 0 0 1014.2 - 0.0 - - 10 - - - -
23/01:00am 18.7 CALM 0 0 1014.8 - 0.0 - - 10 - - - -
23/12:30am 18.8 CALM 0 0 1014.9 - 0.0 - - 10 - - - -
23/12:00am 19.4 CALM 0 0 1015.1 - 0.0 - - 10 - - - -
 
Date/Time
CST
Temp

°C
Wind Pressure Rain
since 9am
mm
Weather Cloud Vis
km
Sea
Height
m
Swell
Dir
 
Speed
knots
Gust
knots
hPa Trend Height
m
Period
s
Dir
22/11:30pm 19.7 CALM 0 0 1015.1 - 0.0 - - 10 - - - -
22/11:00pm 20.1 CALM 0 2 1015.1 - 0.0 - - 10 - - - -
22/10:30pm 20.4 E 2 4 1014.7 - 0.0 - - 10 - - - -
22/10:00pm 21.1 ENE 4 6 1014.8 - 0.0 - - 10 - - - -
22/09:30pm 20.9 ENE 4 5 1014.6 - 0.0 - - 10 - - - -
22/09:00pm 21.0 ENE 3 5 1014.4 - 0.0 - - 10 - - - -
22/08:30pm 21.5 NE 3 4 1014.1 - 0.0 - - 10 - - - -
22/08:00pm 22.8 NNE 4 5 1013.7 - 0.0 - - 10 - - - -
22/07:30pm 23.2 N 5 6 1012.8 - 0.0 - - 10 - - - -
22/07:00pm 23.8 N 5 7 1013.0 - 0.0 - - 10 - - - -
22/06:30pm 24.6 N 6 8 1012.7 - 0.0 - - 10 - - - -
22/06:00pm 25.9 N 6 8 1012.5 - 0.0 - - 10 - - - -
22/05:30pm 28.4 NE 7 11 1012.3 - 0.0 - - 10 - - - -
22/05:00pm 28.7 NE 9 13 1012.0 - 0.0 - - 10 - - - -
22/04:30pm 28.6 NE 7 13 1011.7 - 0.0 - - 10 - - - -
22/04:00pm 28.2 NNE 9 13 1012.2 - 0.0 - - 10 - - - -
22/03:30pm 28.8 NE 7 12 1012.4 - 0.0 - - 10 - - - -
22/03:00pm 29.0 N 9 14 1012.6 - 0.0 - - 10 - - - -
22/02:30pm 29.7 NE 9 14 1012.9 - 0.0 - - 10 - - - -
22/02:00pm 29.6 E 8 13 1013.3 - 0.0 - - 10 - - - -
22/01:30pm 29.3 E 7 15 1013.5 - 0.0 - - 10 - - - -
22/01:00pm 28.5 E 8 11 1014.3 - 0.0 - - 10 - - - -
22/12:30pm 27.9 E 9 14 1014.8 - 0.0 - - 10 - - - -
22/12:00pm 27.2 E 9 14 1015.4 - 0.0 - - 10 - - - -
22/11:30am 26.7 E 10 16 1015.6 - 0.0 - - 10 - - - -
22/11:00am 26.4 E 8 12 1015.9 - 0.0 - - 10 - - - -
22/10:30am 25.6 E 8 14 1015.6 - 0.0 - - 10 - - - -
22/10:00am 24.2 ESE 6 9 1016.1 - 0.0 - - 10 - - - -
22/09:30am 22.9 ESE 6 8 1015.9 - 0.0 - - 10 - - - -
22/09:00am 21.8 ESE 6 8 1015.8 - 0.0 - - 10 - - - -
22/08:30am 20.8 ESE 6 9 1015.7 - 0.0 - - 10 - - - -
22/08:00am 17.4 E 5 6 1015.5 - 0.0 - - 10 - - - -
22/07:30am 15.5 SE 3 5 1014.8 - 0.0 - - 10 - - - -
22/07:00am 15.7 SSW 3 4 1015.0 - 0.0 - - 10 - - - -
22/06:30am 16.0 SSW 3 4 1014.8 - 0.0 - - 10 - - - -
22/06:00am 15.7 WSW 3 4 1014.6 - 0.0 - - 10 - - - -
22/05:30am 15.7 SW 1 4 1014.8 - 0.0 - - 10 - - - -
22/05:00am 15.1 WSW 2 4 1014.7 - 0.0 - - 10 - - - -
22/04:30am 16.6 SW 1 4 1014.1 - 0.0 - - 10 - - - -
22/04:00am 16.7 SW 3 4 1014.6 - 0.0 - - 10 - - - -
22/03:30am 17.4 CALM 0 0 1014.8 - 0.0 - - 10 - - - -
22/03:00am 18.4 SSE 3 4 1015.1 - 0.0 - - 10 - - - -
22/02:30am 19.2 SSE 4 6 1015.2 - 0.0 - - 10 - - - -
22/02:00am 19.0 SE 5 6 1015.1 - 0.0 - - 10 - - - -
22/01:30am 19.5 SE 5 6 1014.7 - 0.0 - - 10 - - - -
22/01:00am 19.4 SE 4 5 1015.0 - 0.0 - - 10 - - - -
22/12:30am 18.8 ESE 4 5 1015.1 - 0.0 - - 10 - - - -
22/12:20am 18.7 ESE 4 5 1015.2 - 0.0 - - 10 - - - -
22/12:07am 19.0 ESE 4 5 1015.2 - 0.0 - - 5 - - - -
22/12:00am 19.3 ESE 4 5 1015.2 - 0.0 - - 10 - - - -
 
Date/Time
CST
Temp

°C
Wind Pressure Rain
since 9am
mm
Weather Cloud Vis
km
Sea
Height
m
Swell
Dir
 
Speed
knots
Gust
knots
hPa Trend Height
m
Period
s
Dir
21/11:30pm 20.3 E 4 6 1015.4 - 0.0 - - 10 - - - -
21/11:00pm 20.9 E 5 6 1015.4 - 0.0 - - 10 - - - -
21/10:30pm 21.6 E 5 7 1015.1 - 0.0 - - 10 - - - -
21/10:00pm 22.1 ENE 5 7 1015.4 - 0.0 - - 10 - - - -
21/09:30pm 22.3 ENE 5 7 1015.2 - 0.0 - - 10 - - - -
21/09:00pm 23.2 ENE 5 8 1015.0 - 0.0 - - 10 - - - -
21/08:30pm 24.1 ENE 6 10 1014.6 - 0.0 - - 10 - - - -
21/08:00pm 24.7 NE 6 9 1014.1 - 0.0 - - 10 - - - -
21/07:30pm 25.0 NE 6 9 1013.2 - 0.0 - - 10 - - - -
21/07:00pm 25.8 NE 6 11 1013.1 - 0.0 - - 10 - - - -
21/06:30pm 27.0 NE 6 13 1012.8 - 0.0 - - 7 - - - -
21/06:00pm 28.0 NE 7 14 1012.6 - 0.0 - - 10 - - - -
21/05:30pm 28.8 NE 8 14 1012.5 - 0.0 - - 10 - - - -
21/05:00pm 29.5 NE 8 14 1012.3 - 0.0 - - 10 - - - -
21/04:30pm 29.4 NE 9 13 1011.9 - 0.0 - - 10 - - - -
21/04:00pm 29.7 NE 8 12 1012.5 - 0.0 - - 10 - - - -
21/03:30pm 29.5 NNE 7 11 1012.9 - 0.0 - - 10 - - - -
21/03:00pm 28.6 N 9 13 1013.2 - 0.0 - - 10 - - - -
21/02:30pm 28.5 N 8 14 1013.7 - 0.0 - - 10 - - - -
21/02:00pm 29.2 NE 6 10 1014.3 - 0.0 - - 10 - - - -
21/01:30pm 29.6 ENE 7 11 1014.5 - 0.0 - - 10 - - - -
21/01:00pm 29.1 E 8 12 1015.3 - 0.0 - - 10 - - - -
21/12:30pm 28.7 E 7 11 1015.6 - 0.0 - - 10 - - - -
21/12:00pm 28.2 E 7 13 1016.0 - 0.0 - - 10 - - - -
21/11:30am 27.7 E 7 10 1016.5 - 0.0 - - 10 - - - -
21/11:00am 26.9 ESE 7 11 1017.0 - 0.0 - - 10 - - - -
21/10:30am 26.3 ESE 6 10 1016.9 - 0.0 - - 10 - - - -
21/10:00am 25.6 ESE 5 9 1017.2 - 0.0 - - 10 - - - -
21/09:30am 24.9 SE 3 5 1017.2 - 0.0 - - 10 - - - -
21/09:00am 23.3 SSE 3 4 1017.1 - 0.0 - - 10 - - - -
21/08:30am 20.9 SSE 4 5 1016.8 - 0.0 - - 10 - - - -
21/08:00am 18.3 S 4 5 1016.4 - 0.0 - - 10 - - - -
21/07:30am 17.7 SSW 4 5 1015.8 - 0.0 - - 10 - - - -
21/07:00am 18.1 SSW 4 6 1015.7 - 0.0 - - 10 - - - -
21/06:30am 18.2 SW 4 5 1015.4 - 0.0 - - 10 - - - -
21/06:00am 17.7 S 3 4 1015.1 - 0.0 - - 10 - - - -
21/05:30am 17.1 S 4 4 1015.0 - 0.0 - - 10 - - - -
21/05:00am 17.0 S 3 4 1014.8 - 0.0 - - 10 - - - -
21/04:30am 17.0 S 3 4 1014.3 - 0.0 - - 10 - - - -
21/04:00am 16.9 SSE 2 3 1014.8 - 0.0 - - 10 - - - -
21/03:30am 17.6 SSE 3 4 1014.9 - 0.0 - - 10 - - - -
21/03:00am 17.8 SSE 3 4 1014.9 - 0.0 - - 10 - - - -
21/02:30am 18.6 SE 4 4 1015.0 - 0.0 - - 10 - - - -
21/02:00am 19.3 ESE 4 5 1015.0 - 0.0 - - 10 - - - -
21/01:30am 18.9 ESE 5 6 1014.8 - 0.0 - - 10 - - - -
21/01:00am 19.0 E 4 5 1015.2 - 0.0 - - 10 - - - -
21/12:30am 19.3 ESE 4 6 1015.2 - 0.0 - - 10 - - - -
21/12:00am 20.0 E 5 6 1015.3 - 0.0 - - 10 - - - -
 
Date/Time
CST
Temp

°C
Wind Pressure Rain
since 9am
mm
Weather Cloud Vis
km
Sea
Height
m
Swell
Dir
 
Speed
knots
Gust
knots
hPa Trend Height
m
Period
s
Dir
20/11:30pm 20.6 E 5 6 1015.3 - 0.0 - - 10 - - - -
20/11:00pm 20.2 E 5 6 1015.5 - 0.0 - - 10 - - - -
20/10:30pm 20.9 E 4 5 1015.1 - 0.0 - - 10 - - - -
20/10:00pm 20.8 ENE 4 5 1015.2 - 0.0 - - 10 - - - -
20/09:30pm 21.6 E 4 5 1015.0 - 0.0 - - 10 - - - -
20/09:00pm 22.1 E 4 6 1014.7 - 0.0 - - 10 - - - -
20/08:30pm 22.8 ENE 4 6 1014.5 - 0.0 - - 10 - - - -
20/08:00pm 23.9 ENE 5 7 1014.2 - 0.0 - - 10 - - - -
20/07:30pm 24.3 ENE 6 9 1013.4 - 0.0 - - 10 - - - -
20/07:00pm 25.0 NE 6 9 1013.4 - 0.0 - - 10 - - - -
20/06:30pm 26.2 NE 6 9 1013.1 - 0.0 - - 10 - - - -
20/06:00pm 27.2 NE 8 11 1012.8 - 0.0 - - 10 - - - -
20/05:30pm 28.1 NE 8 12 1012.6 - 0.0 - - 10 - - - -
20/05:00pm 28.7 NE 9 14 1012.5 - 0.0 - - 10 - - - -
20/04:30pm 29.0 NE 9 15 1012.0 - 0.0 - - 10 - - - -
20/04:00pm 29.0 ENE 9 14 1012.5 - 0.0 - - 10 - - - -
20/03:30pm 29.2 ENE 9 13 1012.6 - 0.0 - - 10 - - - -
20/03:00pm 29.7 ENE 8 13 1013.0 - 0.0 - - 10 - - - -
20/02:30pm 29.4 ENE 9 14 1013.4 - 0.0 - - 10 - - - -
20/02:00pm 29.7 ENE 8 12 1014.0 - 0.0 - - 10 - - - -
20/01:30pm 29.4 E 9 15 1014.0 - 0.0 - - 10 - - - -
20/01:00pm 28.4 E 11 17 1014.8 - 0.0 - - 10 - - - -

Other Formats:

Comma delimited format used in spreadsheet applications
http://www.bom.gov.au/fwo/IDD60701/IDD60701.95101.axf

JavaScript Object Notation format (JSON) in row-major order
http://www.bom.gov.au/fwo/IDD60701/IDD60701.95101.json